createdAt,value
2019-01-13T00:00:52.888Z,19.27
2019-01-13T00:01:54.299Z,19.25
2019-01-13T00:02:55.617Z,19.23
2019-01-13T00:03:56.735Z,19.23
2019-01-13T00:04:58.093Z,19.21
2019-01-13T00:05:59.212Z,19.21
2019-01-13T00:07:00.325Z,19.20
2019-01-13T00:08:01.837Z,19.19
2019-01-13T00:09:05.472Z,19.18
2019-01-13T00:10:06.871Z,19.19
2019-01-13T00:11:08.183Z,19.18
2019-01-13T00:12:09.300Z,19.16
2019-01-13T00:13:10.409Z,19.15
2019-01-13T00:14:11.636Z,19.16
2019-01-13T00:15:12.749Z,19.14
2019-01-13T00:16:13.866Z,19.14
2019-01-13T00:17:15.084Z,19.13
2019-01-13T00:18:16.200Z,19.12
2019-01-13T00:19:17.324Z,19.12
2019-01-13T00:20:18.540Z,19.10
2019-01-13T00:21:19.827Z,19.10
2019-01-13T00:22:20.932Z,19.09
2019-01-13T00:23:22.048Z,19.08
2019-01-13T00:24:23.178Z,19.07
2019-01-13T00:25:24.293Z,19.06
2019-01-13T00:26:25.406Z,19.05
2019-01-13T00:27:26.520Z,19.06
2019-01-13T00:28:27.731Z,19.05
2019-01-13T00:29:28.989Z,19.05
2019-01-13T00:30:30.113Z,19.03
2019-01-13T00:31:31.242Z,18.99
2019-01-13T00:32:32.357Z,19.03
2019-01-13T00:33:33.465Z,19.02
2019-01-13T00:34:34.610Z,19.02
2019-01-13T00:35:35.742Z,19.02
2019-01-13T00:36:36.852Z,19.01
2019-01-13T00:37:38.071Z,19.02
2019-01-13T00:38:39.183Z,19.01
2019-01-13T00:39:40.313Z,19.00
2019-01-13T00:40:41.448Z,18.99
2019-01-13T00:41:42.639Z,19.00
2019-01-13T00:42:43.754Z,18.99
2019-01-13T00:43:44.872Z,18.98
2019-01-13T00:44:45.997Z,18.98
2019-01-13T00:45:47.108Z,18.97
2019-01-13T00:46:48.225Z,18.96
2019-01-13T00:47:49.335Z,18.96
2019-01-13T00:48:50.456Z,18.95
2019-01-13T00:49:51.582Z,18.94
2019-01-13T00:50:52.698Z,18.93
2019-01-13T00:51:53.812Z,18.93
2019-01-13T00:52:54.924Z,18.93
2019-01-13T00:53:56.038Z,18.92
2019-01-13T00:54:57.268Z,18.92
2019-01-13T00:55:58.384Z,18.91
2019-01-13T00:56:59.500Z,18.91
2019-01-13T00:58:00.714Z,18.91
2019-01-13T00:59:01.933Z,18.91
2019-01-13T01:00:26.455Z,18.90
2019-01-13T01:01:24.598Z,18.90
2019-01-13T01:02:25.710Z,18.91
2019-01-13T01:03:26.828Z,18.89
2019-01-13T01:04:27.938Z,18.88
2019-01-13T01:05:29.188Z,18.87
2019-01-13T01:06:30.296Z,18.86
2019-01-13T01:07:31.417Z,18.86
2019-01-13T01:08:32.525Z,18.85
2019-01-13T01:09:33.845Z,18.86
2019-01-13T01:10:34.970Z,18.85
2019-01-13T01:11:36.078Z,18.85
2019-01-13T01:12:37.296Z,18.84
2019-01-13T01:13:38.512Z,18.84
2019-01-13T01:14:39.621Z,18.84
2019-01-13T01:15:40.745Z,18.83
2019-01-13T01:16:41.960Z,18.83
2019-01-13T01:17:43.272Z,18.82
2019-01-13T01:18:44.390Z,18.84
2019-01-13T01:19:45.500Z,18.83
2019-01-13T01:20:46.624Z,18.82
2019-01-13T01:21:47.743Z,18.82
2019-01-13T01:22:48.857Z,18.82
2019-01-13T01:23:50.075Z,18.82
2019-01-13T01:24:51.184Z,18.82
2019-01-13T01:25:52.313Z,18.82
2019-01-13T01:26:53.426Z,18.81
2019-01-13T01:27:54.533Z,18.81
2019-01-13T01:28:55.649Z,18.82
2019-01-13T01:29:56.756Z,18.83
2019-01-13T01:30:57.880Z,18.80
2019-01-13T01:31:58.987Z,18.81
2019-01-13T01:33:00.195Z,18.82
2019-01-13T01:34:01.412Z,18.81
2019-01-13T01:35:03.960Z,18.81
2019-01-13T01:36:05.287Z,18.81
2019-01-13T01:37:06.407Z,18.82
2019-01-13T01:38:07.504Z,18.81
2019-01-13T01:39:08.618Z,18.81
2019-01-13T01:40:15.012Z,18.82
2019-01-13T01:41:16.134Z,18.81
2019-01-13T01:42:17.244Z,18.82
2019-01-13T01:43:18.353Z,18.81
2019-01-13T01:44:19.471Z,18.80
2019-01-13T01:45:20.577Z,18.80
2019-01-13T01:46:21.814Z,18.80
2019-01-13T01:47:22.920Z,18.80
2019-01-13T01:48:24.028Z,18.79
2019-01-13T01:49:25.246Z,18.52
2019-01-13T01:50:26.360Z,18.74
2019-01-13T01:51:27.485Z,18.79
2019-01-13T01:52:28.603Z,18.80
2019-01-13T01:53:29.715Z,18.79
2019-01-13T01:54:31.982Z,18.79
2019-01-13T01:55:33.089Z,18.79
2019-01-13T01:56:34.246Z,18.78
2019-01-13T01:57:35.464Z,18.79
2019-01-13T01:58:36.576Z,18.79
2019-01-13T01:59:37.692Z,18.78
2019-01-13T02:00:40.645Z,18.79
2019-01-13T02:01:41.834Z,18.78
2019-01-13T02:02:42.940Z,18.77
2019-01-13T02:03:44.078Z,18.77
2019-01-13T02:04:45.156Z,18.77
2019-01-13T02:05:46.274Z,18.77
2019-01-13T02:06:47.396Z,18.77
2019-01-13T02:07:48.567Z,18.78
2019-01-13T02:08:49.717Z,18.77
2019-01-13T02:09:50.840Z,18.77
2019-01-13T02:10:51.949Z,18.77
2019-01-13T02:11:53.077Z,18.77
2019-01-13T02:12:54.186Z,18.77
2019-01-13T02:13:55.300Z,18.78
2019-01-13T02:14:56.417Z,18.78
2019-01-13T02:15:57.544Z,18.77
2019-01-13T02:16:58.672Z,18.78
2019-01-13T02:17:59.884Z,18.77
2019-01-13T02:19:01.077Z,18.77
2019-01-13T02:20:05.688Z,18.77
2019-01-13T02:21:06.794Z,18.77
2019-01-13T02:22:07.924Z,18.78
2019-01-13T02:23:09.039Z,18.77
2019-01-13T02:24:10.146Z,18.77
2019-01-13T02:25:14.460Z,18.76
2019-01-13T02:26:15.571Z,18.76
2019-01-13T02:27:16.800Z,18.77
2019-01-13T02:28:17.908Z,18.78
2019-01-13T02:29:19.031Z,18.77
2019-01-13T02:30:22.148Z,18.77
2019-01-13T02:31:23.264Z,18.77
2019-01-13T02:32:24.393Z,18.78
2019-01-13T02:33:25.509Z,18.77
2019-01-13T02:34:26.729Z,18.77
2019-01-13T02:35:27.856Z,18.77
2019-01-13T02:36:28.995Z,18.77
2019-01-13T02:37:30.117Z,18.77
2019-01-13T02:38:31.235Z,18.77
2019-01-13T02:39:32.458Z,18.76
2019-01-13T02:40:33.572Z,18.75
2019-01-13T02:41:34.794Z,18.75
2019-01-13T02:42:35.927Z,18.77
2019-01-13T02:43:37.040Z,18.76
2019-01-13T02:44:38.158Z,18.75
2019-01-13T02:45:39.270Z,18.75
2019-01-13T02:46:40.486Z,18.75
2019-01-13T02:47:41.606Z,18.75
2019-01-13T02:48:42.721Z,18.75
2019-01-13T02:49:43.947Z,18.75
2019-01-13T02:50:45.052Z,18.75
2019-01-13T02:51:46.171Z,18.75
2019-01-13T02:52:47.592Z,18.75
2019-01-13T02:53:48.718Z,18.75
2019-01-13T02:54:49.826Z,18.75
2019-01-13T02:55:50.946Z,18.74
2019-01-13T02:56:55.199Z,18.75
2019-01-13T02:57:56.313Z,18.75
2019-01-13T02:58:57.430Z,18.74
2019-01-13T02:59:58.655Z,18.74
2019-01-13T03:00:59.771Z,18.74
2019-01-13T03:02:00.879Z,18.74
2019-01-13T03:03:02.000Z,18.74
2019-01-13T03:04:03.616Z,18.73
2019-01-13T03:05:07.628Z,18.73
2019-01-13T03:06:08.738Z,18.73
2019-01-13T03:07:09.852Z,18.72
2019-01-13T03:08:11.086Z,18.72
2019-01-13T03:09:12.200Z,18.72
2019-01-13T03:10:15.806Z,18.72
2019-01-13T03:11:17.017Z,18.71
2019-01-13T03:12:18.131Z,18.71
2019-01-13T03:13:19.255Z,18.71
2019-01-13T03:14:20.365Z,18.70
2019-01-13T03:15:22.185Z,18.71
2019-01-13T03:16:23.291Z,18.70
2019-01-13T03:17:24.406Z,18.69
2019-01-13T03:18:25.532Z,18.69
2019-01-13T03:19:26.648Z,18.70
2019-01-13T03:20:27.765Z,18.70
2019-01-13T03:21:28.887Z,18.69
2019-01-13T03:22:29.997Z,18.70
2019-01-13T03:23:31.126Z,18.69
2019-01-13T03:24:32.238Z,18.69
2019-01-13T03:25:33.352Z,18.69
2019-01-13T03:26:34.471Z,18.69
2019-01-13T03:27:37.298Z,18.69
2019-01-13T03:28:38.425Z,18.69
2019-01-13T03:29:39.536Z,18.70
2019-01-13T03:30:40.651Z,18.69
2019-01-13T03:31:41.764Z,18.69
2019-01-13T03:32:42.874Z,18.70
2019-01-13T03:33:44.029Z,18.70
2019-01-13T03:34:45.144Z,18.70
2019-01-13T03:35:46.266Z,18.69
2019-01-13T03:36:47.402Z,18.69
2019-01-13T03:37:48.513Z,18.69
2019-01-13T03:38:49.636Z,18.70
2019-01-13T03:39:50.795Z,18.71
2019-01-13T03:40:51.878Z,18.70
2019-01-13T03:41:53.190Z,18.69
2019-01-13T03:42:54.328Z,18.69
2019-01-13T03:43:55.425Z,18.69
2019-01-13T03:44:56.644Z,18.70
2019-01-13T03:45:57.756Z,18.69
2019-01-13T03:46:58.860Z,18.68
2019-01-13T03:47:59.972Z,18.70
2019-01-13T03:49:01.101Z,18.70
2019-01-13T03:50:08.371Z,18.69
2019-01-13T03:51:09.493Z,18.68
2019-01-13T03:52:10.708Z,18.69
2019-01-13T03:53:11.824Z,18.70
2019-01-13T03:54:12.947Z,18.70
2019-01-13T03:55:15.660Z,18.70
2019-01-13T03:56:16.780Z,18.70
2019-01-13T03:57:17.878Z,18.70
2019-01-13T03:58:18.995Z,18.69
2019-01-13T03:59:20.127Z,18.70
2019-01-13T04:00:23.335Z,18.70
2019-01-13T04:01:24.449Z,18.71
2019-01-13T04:02:25.659Z,18.70
2019-01-13T04:03:26.769Z,18.71
2019-01-13T04:04:27.892Z,18.70
2019-01-13T04:05:28.997Z,18.70
2019-01-13T04:06:30.112Z,18.70
2019-01-13T04:07:31.232Z,18.68
2019-01-13T04:08:32.339Z,18.70
2019-01-13T04:09:33.467Z,18.69
2019-01-13T04:10:34.627Z,18.69
2019-01-13T04:11:35.691Z,18.69
2019-01-13T04:12:36.796Z,18.69
2019-01-13T04:13:38.015Z,18.69
2019-01-13T04:14:39.148Z,18.70
2019-01-13T04:15:41.156Z,18.69
2019-01-13T04:16:42.560Z,18.70
2019-01-13T04:17:44.569Z,18.70
2019-01-13T04:18:45.691Z,18.69
2019-01-13T04:19:46.815Z,18.70
2019-01-13T04:20:47.929Z,18.70
2019-01-13T04:21:49.039Z,18.70
2019-01-13T04:22:50.156Z,18.69
2019-01-13T04:23:51.269Z,18.68
2019-01-13T04:24:52.391Z,18.70
2019-01-13T04:25:53.498Z,18.69
2019-01-13T04:26:54.720Z,18.64
2019-01-13T04:27:55.836Z,18.69
2019-01-13T04:28:57.045Z,18.69
2019-01-13T04:30:00.473Z,18.69
2019-01-13T04:31:01.584Z,18.70
2019-01-13T04:32:03.000Z,18.69
2019-01-13T04:33:04.133Z,18.69
2019-01-13T04:34:05.232Z,18.69
2019-01-13T04:35:06.765Z,18.69
2019-01-13T04:36:07.909Z,18.69
2019-01-13T04:37:09.025Z,18.70
2019-01-13T04:38:10.243Z,18.69
2019-01-13T04:39:11.355Z,18.69
2019-01-13T04:40:12.692Z,18.69
2019-01-13T04:41:13.809Z,18.69
2019-01-13T04:42:14.919Z,18.69
2019-01-13T04:43:16.039Z,18.69
2019-01-13T04:44:17.152Z,18.70
2019-01-13T04:45:18.385Z,18.71
2019-01-13T04:46:19.508Z,18.69
2019-01-13T04:47:20.720Z,18.71
2019-01-13T04:48:21.843Z,18.71
2019-01-13T04:49:22.960Z,18.70
2019-01-13T04:50:24.085Z,18.71
2019-01-13T04:51:25.214Z,18.71
2019-01-13T04:52:26.328Z,18.71
2019-01-13T04:53:27.441Z,18.71
2019-01-13T04:54:28.657Z,18.72
2019-01-13T04:55:29.784Z,18.71
2019-01-13T04:56:30.897Z,18.72
2019-01-13T04:57:32.064Z,18.71
2019-01-13T04:58:33.125Z,18.72
2019-01-13T04:59:34.346Z,18.72
2019-01-13T05:00:35.750Z,18.71
2019-01-13T05:01:37.022Z,18.72
2019-01-13T05:02:38.082Z,18.73
2019-01-13T05:03:39.193Z,18.72
2019-01-13T05:04:40.316Z,18.72
2019-01-13T05:05:41.430Z,18.72
2019-01-13T05:06:42.646Z,18.72
2019-01-13T05:07:44.061Z,18.74
2019-01-13T05:08:45.176Z,18.73
2019-01-13T05:09:46.294Z,18.73
2019-01-13T05:10:47.552Z,18.73
2019-01-13T05:11:48.783Z,18.73
2019-01-13T05:12:49.998Z,18.74
2019-01-13T05:13:51.109Z,18.73
2019-01-13T05:14:52.230Z,18.73
2019-01-13T05:15:53.363Z,18.73
2019-01-13T05:16:54.479Z,18.73
2019-01-13T05:17:55.590Z,18.72
2019-01-13T05:18:56.709Z,18.72
2019-01-13T05:19:57.825Z,18.72
2019-01-13T05:20:58.977Z,18.72
2019-01-13T05:22:00.089Z,18.72
2019-01-13T05:23:01.207Z,18.73
2019-01-13T05:24:02.419Z,18.72
2019-01-13T05:25:05.233Z,18.72
2019-01-13T05:26:06.362Z,18.72
2019-01-13T05:27:07.476Z,18.71
2019-01-13T05:28:08.602Z,18.72
2019-01-13T05:29:09.812Z,18.72
2019-01-13T05:30:16.140Z,18.72
2019-01-13T05:31:17.405Z,18.73
2019-01-13T05:32:18.520Z,18.72
2019-01-13T05:33:19.730Z,18.71
2019-01-13T05:34:20.849Z,18.71
2019-01-13T05:35:21.963Z,18.71
2019-01-13T05:36:23.105Z,18.71
2019-01-13T05:37:24.225Z,18.70
2019-01-13T05:38:25.440Z,18.70
2019-01-13T05:39:26.554Z,18.70
2019-01-13T05:40:27.682Z,18.70
2019-01-13T05:41:28.809Z,18.70
2019-01-13T05:42:30.032Z,18.71
2019-01-13T05:43:31.144Z,18.70
2019-01-13T05:44:32.355Z,18.69
2019-01-13T05:45:33.468Z,18.69
2019-01-13T05:46:34.599Z,18.70
2019-01-13T05:47:35.715Z,18.70
2019-01-13T05:48:36.823Z,18.69
2019-01-13T05:49:37.940Z,18.69
2019-01-13T05:50:39.049Z,18.70
2019-01-13T05:51:40.176Z,18.69
2019-01-13T05:52:42.291Z,18.70
2019-01-13T05:53:43.400Z,18.70
2019-01-13T05:54:44.512Z,18.71
2019-01-13T05:55:45.729Z,18.71
2019-01-13T05:56:46.860Z,18.70
2019-01-13T05:57:47.973Z,18.70
2019-01-13T05:58:49.190Z,18.71
2019-01-13T05:59:50.300Z,18.70
2019-01-13T06:00:51.509Z,18.69
2019-01-13T06:01:52.640Z,18.70
2019-01-13T06:02:53.748Z,18.69
2019-01-13T06:03:54.865Z,18.70
2019-01-13T06:04:56.016Z,18.70
2019-01-13T06:05:57.096Z,18.69
2019-01-13T06:06:58.228Z,18.68
2019-01-13T06:07:59.359Z,18.69
2019-01-13T06:09:00.459Z,18.69
2019-01-13T06:10:02.067Z,18.69
2019-01-13T06:11:03.180Z,18.68
2019-01-13T06:12:04.299Z,18.69
2019-01-13T06:13:05.417Z,18.68
2019-01-13T06:14:06.535Z,18.69
2019-01-13T06:15:11.149Z,18.69
2019-01-13T06:16:12.264Z,18.69
2019-01-13T06:17:13.387Z,18.69
2019-01-13T06:18:14.504Z,18.69
2019-01-13T06:19:15.620Z,18.69
2019-01-13T06:20:21.235Z,18.69
2019-01-13T06:21:22.343Z,18.69
2019-01-13T06:22:23.474Z,18.68
2019-01-13T06:23:24.587Z,18.67
2019-01-13T06:24:25.712Z,18.67
2019-01-13T06:25:26.833Z,18.66
2019-01-13T06:26:27.944Z,18.66
2019-01-13T06:27:29.080Z,18.66
2019-01-13T06:28:30.186Z,18.65
2019-01-13T06:29:31.296Z,18.64
2019-01-13T06:30:32.403Z,18.64
2019-01-13T06:31:33.524Z,18.63
2019-01-13T06:32:34.685Z,18.63
2019-01-13T06:33:35.811Z,18.63
2019-01-13T06:34:36.925Z,18.63
2019-01-13T06:35:38.039Z,18.62
2019-01-13T06:36:39.162Z,18.62
2019-01-13T06:37:40.295Z,18.62
2019-01-13T06:38:41.409Z,18.61
2019-01-13T06:39:42.520Z,18.61
2019-01-13T06:40:43.640Z,18.60
2019-01-13T06:41:44.754Z,18.60
2019-01-13T06:42:45.956Z,18.60
2019-01-13T06:43:47.072Z,18.59
2019-01-13T06:44:48.284Z,18.58
2019-01-13T06:45:49.402Z,18.59
2019-01-13T06:46:50.612Z,18.55
2019-01-13T06:47:51.839Z,18.58
2019-01-13T06:48:55.044Z,18.59
2019-01-13T06:49:56.163Z,18.58
2019-01-13T06:50:57.268Z,18.59
2019-01-13T06:51:58.486Z,18.59
2019-01-13T06:52:59.612Z,18.59
2019-01-13T06:54:00.717Z,18.59
2019-01-13T06:55:02.136Z,18.60
2019-01-13T06:56:03.820Z,18.60
2019-01-13T06:57:04.937Z,18.60
2019-01-13T06:58:06.055Z,18.59
2019-01-13T06:59:07.177Z,18.59
2019-01-13T07:00:11.885Z,18.60
2019-01-13T07:01:12.993Z,18.60
2019-01-13T07:02:14.106Z,18.60
2019-01-13T07:03:15.234Z,18.61
2019-01-13T07:04:16.745Z,18.60
2019-01-13T07:05:18.060Z,18.61
2019-01-13T07:06:19.196Z,18.61
2019-01-13T07:07:20.405Z,18.62
2019-01-13T07:08:21.528Z,18.62
2019-01-13T07:09:22.642Z,18.62
2019-01-13T07:10:23.758Z,18.64
2019-01-13T07:11:24.865Z,18.66
2019-01-13T07:12:25.980Z,18.69
2019-01-13T07:13:27.214Z,18.71
2019-01-13T07:14:28.329Z,18.51
2019-01-13T07:15:29.438Z,18.78
2019-01-13T07:16:30.657Z,18.82
2019-01-13T07:17:31.769Z,18.86
2019-01-13T07:18:32.907Z,18.90
2019-01-13T07:19:34.025Z,18.95
2019-01-13T07:20:35.142Z,18.98
2019-01-13T07:21:36.250Z,19.06
2019-01-13T07:22:37.464Z,19.11
2019-01-13T07:23:38.589Z,19.15
2019-01-13T07:24:39.706Z,19.21
2019-01-13T07:25:40.822Z,19.28
2019-01-13T07:26:41.931Z,19.34
2019-01-13T07:27:43.149Z,19.40
2019-01-13T07:28:44.280Z,19.48
2019-01-13T07:29:45.397Z,19.54
2019-01-13T07:30:46.515Z,19.61
2019-01-13T07:31:47.741Z,19.67
2019-01-13T07:32:48.853Z,19.74
2019-01-13T07:33:49.983Z,19.80
2019-01-13T07:34:51.209Z,19.86
2019-01-13T07:35:52.505Z,19.92
2019-01-13T07:36:53.644Z,19.97
2019-01-13T07:37:54.757Z,20.03
2019-01-13T07:38:55.886Z,20.09
2019-01-13T07:39:56.998Z,20.13
2019-01-13T07:40:58.122Z,20.18
2019-01-13T07:41:59.232Z,20.25
2019-01-13T07:43:00.453Z,20.28
2019-01-13T07:44:01.576Z,20.32
2019-01-13T07:45:05.984Z,20.37
2019-01-13T07:46:07.104Z,20.42
2019-01-13T07:47:08.212Z,20.45
2019-01-13T07:48:09.434Z,20.49
2019-01-13T07:49:10.577Z,20.52
2019-01-13T07:50:13.788Z,20.55
2019-01-13T07:51:15.007Z,20.57
2019-01-13T07:52:16.221Z,20.59
2019-01-13T07:53:17.343Z,20.61
2019-01-13T07:54:18.493Z,20.64
2019-01-13T07:55:19.703Z,20.67
2019-01-13T07:56:20.816Z,20.69
2019-01-13T07:57:21.935Z,20.72
2019-01-13T07:58:23.052Z,20.74
2019-01-13T07:59:24.180Z,20.76
2019-01-13T08:00:27.992Z,20.78
2019-01-13T08:01:29.208Z,20.81
2019-01-13T08:02:30.329Z,20.81
2019-01-13T08:03:31.436Z,20.83
2019-01-13T08:04:32.669Z,20.84
2019-01-13T08:05:33.884Z,20.85
2019-01-13T08:06:34.999Z,20.86
2019-01-13T08:07:36.109Z,20.87
2019-01-13T08:08:37.297Z,20.87
2019-01-13T08:09:38.430Z,20.86
2019-01-13T08:10:39.643Z,20.88
2019-01-13T08:11:40.758Z,20.87
2019-01-13T08:12:42.771Z,20.89
2019-01-13T08:13:43.875Z,20.87
2019-01-13T08:14:45.009Z,20.86
2019-01-13T08:15:46.117Z,20.87
2019-01-13T08:16:47.234Z,20.87
2019-01-13T08:17:48.439Z,20.86
2019-01-13T08:18:49.554Z,20.86
2019-01-13T08:19:50.686Z,20.86
2019-01-13T08:20:51.898Z,20.85
2019-01-13T08:21:53.016Z,20.84
2019-01-13T08:22:54.229Z,20.84
2019-01-13T08:23:55.448Z,20.83
2019-01-13T08:24:56.612Z,20.82
2019-01-13T08:25:57.820Z,20.82
2019-01-13T08:26:58.934Z,20.82
2019-01-13T08:28:00.052Z,20.81
2019-01-13T08:29:01.170Z,20.82
2019-01-13T08:30:05.900Z,20.81
2019-01-13T08:31:07.008Z,20.82
2019-01-13T08:32:08.126Z,20.81
2019-01-13T08:33:09.242Z,20.82
2019-01-13T08:34:10.348Z,20.81
2019-01-13T08:35:11.574Z,20.81
2019-01-13T08:36:12.686Z,20.82
2019-01-13T08:37:13.810Z,20.83
2019-01-13T08:38:20.220Z,20.82
2019-01-13T08:39:21.333Z,20.83
2019-01-13T08:40:22.565Z,20.82
2019-01-13T08:41:23.686Z,20.82
2019-01-13T08:42:24.900Z,20.82
2019-01-13T08:43:26.115Z,20.82
2019-01-13T08:44:27.228Z,20.82
2019-01-13T08:45:28.378Z,20.82
2019-01-13T08:46:29.490Z,20.81
2019-01-13T08:47:30.600Z,20.81
2019-01-13T08:48:31.717Z,20.81
2019-01-13T08:49:32.845Z,20.80
2019-01-13T08:50:33.968Z,20.79
2019-01-13T08:51:35.086Z,20.79
2019-01-13T08:52:36.189Z,20.79
2019-01-13T08:53:37.304Z,20.79
2019-01-13T08:54:38.412Z,20.79
2019-01-13T08:55:39.536Z,20.79
2019-01-13T08:56:40.648Z,20.78
2019-01-13T08:57:42.175Z,20.79
2019-01-13T08:58:43.284Z,20.77
2019-01-13T08:59:44.397Z,20.78
2019-01-13T09:00:45.628Z,20.78
2019-01-13T09:01:46.736Z,20.78
2019-01-13T09:02:47.951Z,20.78
2019-01-13T09:03:49.253Z,20.77
2019-01-13T09:04:50.482Z,20.77
2019-01-13T09:05:51.616Z,20.54
2019-01-13T09:06:52.826Z,20.76
2019-01-13T09:07:53.938Z,20.76
2019-01-13T09:08:55.180Z,20.75
2019-01-13T09:09:56.404Z,20.76
2019-01-13T09:10:57.606Z,20.76
2019-01-13T09:11:58.828Z,20.75
2019-01-13T09:13:00.037Z,20.77
2019-01-13T09:14:01.151Z,20.75
2019-01-13T09:15:05.564Z,20.76
2019-01-13T09:16:06.688Z,20.75
2019-01-13T09:17:07.802Z,20.75
2019-01-13T09:18:08.914Z,20.76
2019-01-13T09:19:10.026Z,20.75
2019-01-13T09:20:14.041Z,20.75
2019-01-13T09:21:15.195Z,20.75
2019-01-13T09:22:16.310Z,20.75
2019-01-13T09:23:17.425Z,20.76
2019-01-13T09:24:18.533Z,20.76
2019-01-13T09:25:19.644Z,20.75
2019-01-13T09:26:20.785Z,20.76
2019-01-13T09:27:21.897Z,20.75
2019-01-13T09:28:23.012Z,20.76
2019-01-13T09:29:24.134Z,20.76
2019-01-13T09:30:27.646Z,20.76
2019-01-13T09:31:28.782Z,20.77
2019-01-13T09:32:29.896Z,20.77
2019-01-13T09:33:31.013Z,20.77
2019-01-13T09:34:32.130Z,20.78
2019-01-13T09:35:33.248Z,20.77
2019-01-13T09:36:34.368Z,20.77
2019-01-13T09:37:35.604Z,20.78
2019-01-13T09:38:36.720Z,20.77
2019-01-13T09:39:37.930Z,20.78
2019-01-13T09:40:39.147Z,20.79
2019-01-13T09:41:40.922Z,20.80
2019-01-13T09:42:42.132Z,20.83
2019-01-13T09:43:43.360Z,20.84
2019-01-13T09:44:44.574Z,20.87
2019-01-13T09:45:45.688Z,20.91
2019-01-13T09:46:46.816Z,20.95
2019-01-13T09:47:47.938Z,20.99
2019-01-13T09:48:49.052Z,21.04
2019-01-13T09:49:50.245Z,21.09
2019-01-13T09:50:51.483Z,21.13
2019-01-13T09:51:52.591Z,21.16
2019-01-13T09:52:53.777Z,21.21
2019-01-13T09:53:55.033Z,21.23
2019-01-13T09:54:56.146Z,21.25
2019-01-13T09:55:57.270Z,21.27
2019-01-13T09:56:58.389Z,21.30
2019-01-13T09:57:59.516Z,21.30
2019-01-13T09:59:00.632Z,21.31
2019-01-13T10:00:03.849Z,21.32
2019-01-13T10:01:04.959Z,21.32
2019-01-13T10:02:06.069Z,21.32
2019-01-13T10:03:07.398Z,21.32
2019-01-13T10:04:08.509Z,21.33
2019-01-13T10:05:09.827Z,21.32
2019-01-13T10:06:11.039Z,21.32
2019-01-13T10:07:12.149Z,21.32
2019-01-13T10:08:13.273Z,21.30
2019-01-13T10:09:14.388Z,21.29
2019-01-13T10:10:15.498Z,21.28
2019-01-13T10:11:16.703Z,21.27
2019-01-13T10:12:17.814Z,21.26
2019-01-13T10:13:18.935Z,21.24
2019-01-13T10:14:20.046Z,21.23
2019-01-13T10:15:23.053Z,21.21
2019-01-13T10:16:24.157Z,21.20
2019-01-13T10:17:25.274Z,21.19
2019-01-13T10:18:26.601Z,21.18
2019-01-13T10:19:27.715Z,21.17
2019-01-13T10:20:28.831Z,21.18
2019-01-13T10:21:29.944Z,21.18
2019-01-13T10:22:31.056Z,21.19
2019-01-13T10:23:32.291Z,21.19
2019-01-13T10:24:33.503Z,21.20
2019-01-13T10:25:34.612Z,21.21
2019-01-13T10:26:42.389Z,21.21
2019-01-13T10:27:43.500Z,21.20
2019-01-13T10:28:44.632Z,21.19
2019-01-13T10:29:45.745Z,21.19
2019-01-13T10:30:46.964Z,21.18
2019-01-13T10:31:48.077Z,21.16
2019-01-13T10:32:54.605Z,20.94
2019-01-13T10:33:52.316Z,21.13
2019-01-13T10:34:53.431Z,21.12
2019-01-13T10:35:54.536Z,21.09
2019-01-13T10:36:55.753Z,21.07
2019-01-13T10:37:56.867Z,21.06
2019-01-13T10:38:57.990Z,21.03
2019-01-13T10:39:59.104Z,21.02
2019-01-13T10:41:00.215Z,21.00
2019-01-13T10:42:01.601Z,20.99
2019-01-13T10:43:02.919Z,20.98
2019-01-13T10:44:04.149Z,20.97
2019-01-13T10:45:08.560Z,20.95
2019-01-13T10:46:09.677Z,20.96
2019-01-13T10:47:10.788Z,20.94
2019-01-13T10:48:11.949Z,20.94
2019-01-13T10:49:13.133Z,20.93
2019-01-13T10:50:20.118Z,20.93
2019-01-13T10:51:21.229Z,20.93
2019-01-13T10:52:22.434Z,20.92
2019-01-13T10:53:23.554Z,20.92
2019-01-13T10:54:24.672Z,20.90
2019-01-13T10:55:25.780Z,20.90
2019-01-13T10:56:26.893Z,20.89
2019-01-13T10:57:28.004Z,20.88
2019-01-13T10:58:29.120Z,20.88
2019-01-13T10:59:30.281Z,20.88
2019-01-13T11:00:32.892Z,20.86
2019-01-13T11:01:34.131Z,20.87
2019-01-13T11:02:35.239Z,20.88
2019-01-13T11:03:36.453Z,20.87
2019-01-13T11:04:37.687Z,20.88
2019-01-13T11:05:38.796Z,20.89
2019-01-13T11:06:40.233Z,20.90
2019-01-13T11:07:41.428Z,20.89
2019-01-13T11:08:42.640Z,20.91
2019-01-13T11:09:43.793Z,20.93
2019-01-13T11:10:44.910Z,20.94
2019-01-13T11:11:46.128Z,20.94
2019-01-13T11:12:47.682Z,20.96
2019-01-13T11:13:48.796Z,20.96
2019-01-13T11:14:49.925Z,20.96
2019-01-13T11:15:51.140Z,20.98
2019-01-13T11:16:52.355Z,20.99
2019-01-13T11:17:53.570Z,20.98
2019-01-13T11:18:54.680Z,20.99
2019-01-13T11:19:55.917Z,21.00
2019-01-13T11:20:57.024Z,20.99
2019-01-13T11:21:58.144Z,20.99
2019-01-13T11:23:00.057Z,21.00
2019-01-13T11:24:02.433Z,21.01
2019-01-13T11:25:04.876Z,21.00
2019-01-13T11:26:05.989Z,21.00
2019-01-13T11:27:07.113Z,21.00
2019-01-13T11:28:08.386Z,21.01
2019-01-13T11:29:09.464Z,20.98
2019-01-13T11:30:14.088Z,20.99
2019-01-13T11:31:15.200Z,20.99
2019-01-13T11:32:16.314Z,20.97
2019-01-13T11:33:17.506Z,20.96
2019-01-13T11:34:18.620Z,20.95
2019-01-13T11:35:19.742Z,20.94
2019-01-13T11:36:20.957Z,20.92
2019-01-13T11:37:22.173Z,20.92
2019-01-13T11:38:23.346Z,20.92
2019-01-13T11:39:24.465Z,20.92
2019-01-13T11:40:26.919Z,20.90
2019-01-13T11:41:28.133Z,20.91
2019-01-13T11:42:29.244Z,20.89
2019-01-13T11:43:30.363Z,20.88
2019-01-13T11:44:31.482Z,20.87
2019-01-13T11:45:32.616Z,20.87
2019-01-13T11:46:33.731Z,20.85
2019-01-13T11:47:34.846Z,20.85
2019-01-13T11:48:35.977Z,20.86
2019-01-13T11:49:37.081Z,20.84
2019-01-13T11:50:38.208Z,20.84
2019-01-13T11:51:39.321Z,20.84
2019-01-13T11:52:40.432Z,20.83
2019-01-13T11:53:41.549Z,20.83
2019-01-13T11:54:42.768Z,20.83
2019-01-13T11:55:43.903Z,20.83
2019-01-13T11:56:45.016Z,20.82
2019-01-13T11:57:46.435Z,20.82
2019-01-13T11:58:47.544Z,20.83
2019-01-13T11:59:48.771Z,20.83
2019-01-13T12:00:49.989Z,20.82
2019-01-13T12:01:51.105Z,20.82
2019-01-13T12:02:52.325Z,20.81
2019-01-13T12:03:53.442Z,20.82
2019-01-13T12:04:54.558Z,20.82
2019-01-13T12:05:55.792Z,20.82
2019-01-13T12:06:57.014Z,20.82
2019-01-13T12:07:58.127Z,20.81
2019-01-13T12:08:59.237Z,20.82
2019-01-13T12:10:00.450Z,20.82
2019-01-13T12:11:01.574Z,20.82
2019-01-13T12:12:02.989Z,20.83
2019-01-13T12:13:04.204Z,20.85
2019-01-13T12:14:05.365Z,20.85
2019-01-13T12:15:12.698Z,20.86
2019-01-13T12:16:13.829Z,20.87
2019-01-13T12:17:14.949Z,20.89
2019-01-13T12:18:16.058Z,20.89
2019-01-13T12:19:17.165Z,20.91
2019-01-13T12:20:20.480Z,20.90
2019-01-13T12:21:21.604Z,20.91
2019-01-13T12:22:22.816Z,20.92
2019-01-13T12:23:24.033Z,20.92
2019-01-13T12:24:25.148Z,20.93
2019-01-13T12:25:26.272Z,20.93
2019-01-13T12:26:27.398Z,20.93
2019-01-13T12:27:28.724Z,20.89
2019-01-13T12:28:30.073Z,20.93
2019-01-13T12:29:31.192Z,20.94
2019-01-13T12:30:32.408Z,20.94
2019-01-13T12:31:33.527Z,20.95
2019-01-13T12:32:34.648Z,20.95
2019-01-13T12:33:35.763Z,20.95
2019-01-13T12:34:36.874Z,20.95
2019-01-13T12:35:37.990Z,20.96
2019-01-13T12:36:39.216Z,20.97
2019-01-13T12:37:40.334Z,20.97
2019-01-13T12:38:41.561Z,20.98
2019-01-13T12:39:42.790Z,20.99
2019-01-13T12:40:43.996Z,20.98
2019-01-13T12:41:45.230Z,20.99
2019-01-13T12:42:46.445Z,20.99
2019-01-13T12:43:47.568Z,21.01
2019-01-13T12:44:48.679Z,21.01
2019-01-13T12:45:49.787Z,21.01
2019-01-13T12:46:50.934Z,21.01
2019-01-13T12:47:52.347Z,21.02
2019-01-13T12:48:53.569Z,21.02
2019-01-13T12:49:54.683Z,21.04
2019-01-13T12:50:55.800Z,21.04
2019-01-13T12:51:57.041Z,21.05
2019-01-13T12:52:58.248Z,21.05
2019-01-13T12:53:59.456Z,21.07
2019-01-13T12:55:00.573Z,21.07
2019-01-13T12:56:01.689Z,21.08
2019-01-13T12:57:02.913Z,21.08
2019-01-13T12:58:04.124Z,21.08
2019-01-13T12:59:05.335Z,21.08
2019-01-13T13:00:12.403Z,21.08
2019-01-13T13:01:13.617Z,21.09
2019-01-13T13:02:14.744Z,21.09
2019-01-13T13:03:15.858Z,21.09
2019-01-13T13:04:16.970Z,21.09
2019-01-13T13:05:18.202Z,21.09
2019-01-13T13:06:19.301Z,21.08
2019-01-13T13:07:20.528Z,21.09
2019-01-13T13:08:21.747Z,21.08
2019-01-13T13:09:22.965Z,21.08
2019-01-13T13:10:35.741Z,21.07